sensor_id;sensor_type;location;lat;lon;timestamp;pressure;altitude;pressure_sealevel;temperature;humidity
57234;BME280;43090;52.604;13.318;2023-05-15T00:00:13;100679.97;;;12.63;70.95
57234;BME280;43090;52.604;13.318;2023-05-15T00:02:40;100719.75;;;12.80;71.44
57234;BME280;43090;52.604;13.318;2023-05-15T00:05:07;100680.09;;;12.50;71.92
57234;BME280;43090;52.604;13.318;2023-05-15T00:07:34;100662.78;;;12.43;72.17
57234;BME280;43090;52.604;13.318;2023-05-15T00:10:01;100692.78;;;12.71;72.32
57234;BME280;43090;52.604;13.318;2023-05-15T00:12:28;100701.06;;;12.90;71.50
57234;BME280;43090;52.604;13.318;2023-05-15T00:14:54;100704.09;;;12.97;71.30
57234;BME280;43090;52.604;13.318;2023-05-15T00:17:21;100700.84;;;12.71;72.11
57234;BME280;43090;52.604;13.318;2023-05-15T00:19:47;100700.09;;;12.91;71.52
57234;BME280;43090;52.604;13.318;2023-05-15T00:22:14;100691.34;;;12.55;72.66
57234;BME280;43090;52.604;13.318;2023-05-15T00:24:40;100679.50;;;12.58;72.36
57234;BME280;43090;52.604;13.318;2023-05-15T00:27:07;100647.03;;;12.61;72.06
57234;BME280;43090;52.604;13.318;2023-05-15T00:29:34;100673.16;;;12.59;72.44
57234;BME280;43090;52.604;13.318;2023-05-15T00:32:00;100639.94;;;12.48;72.15
57234;BME280;43090;52.604;13.318;2023-05-15T00:34:27;100633.00;;;12.57;71.90
57234;BME280;43090;52.604;13.318;2023-05-15T00:36:53;100648.97;;;12.47;72.79
57234;BME280;43090;52.604;13.318;2023-05-15T00:39:20;100642.91;;;12.45;72.23
57234;BME280;43090;52.604;13.318;2023-05-15T00:41:47;100673.38;;;12.67;72.62
57234;BME280;43090;52.604;13.318;2023-05-15T00:44:15;100672.19;;;12.60;73.11
57234;BME280;43090;52.604;13.318;2023-05-15T00:46:44;100661.66;;;12.68;72.24
57234;BME280;43090;52.604;13.318;2023-05-15T00:49:12;100652.38;;;12.72;72.30
57234;BME280;43090;52.604;13.318;2023-05-15T00:51:40;100606.75;;;12.61;71.66
57234;BME280;43090;52.604;13.318;2023-05-15T00:54:08;100635.50;;;12.81;71.51
57234;BME280;43090;52.604;13.318;2023-05-15T00:56:36;100629.56;;;12.55;72.22
57234;BME280;43090;52.604;13.318;2023-05-15T00:59:03;100652.94;;;12.87;71.70
57234;BME280;43090;52.604;13.318;2023-05-15T01:01:31;100628.47;;;12.58;71.93
57234;BME280;43090;52.604;13.318;2023-05-15T01:04:00;100641.88;;;12.69;72.01
57234;BME280;43090;52.604;13.318;2023-05-15T01:06:28;100649.56;;;12.74;71.74
57234;BME280;43090;52.604;13.318;2023-05-15T01:08:57;100649.81;;;12.71;71.74
57234;BME280;43090;52.604;13.318;2023-05-15T01:11:28;100643.13;;;12.65;71.96
57234;BME280;43090;52.604;13.318;2023-05-15T01:14:05;100640.03;;;12.70;71.41
57234;BME280;43090;52.604;13.318;2023-05-15T01:16:33;100621.22;;;12.70;70.91
57234;BME280;43090;52.604;13.318;2023-05-15T01:19:02;100623.22;;;12.68;71.16
57234;BME280;43090;52.604;13.318;2023-05-15T01:26:54;100607.41;;;12.30;71.88
57234;BME280;43090;52.604;13.318;2023-05-15T01:29:28;100620.47;;;12.24;72.82
57234;BME280;43090;52.604;13.318;2023-05-15T01:31:59;100621.56;;;12.21;73.30
57234;BME280;43090;52.604;13.318;2023-05-15T01:34:52;100603.75;;;12.20;72.85
57234;BME280;43090;52.604;13.318;2023-05-15T01:51:47;100598.91;;;11.09;79.13
57234;BME280;43090;52.604;13.318;2023-05-15T01:54:16;100614.09;;;11.32;78.60
57234;BME280;43090;52.604;13.318;2023-05-15T01:56:44;100597.56;;;11.61;76.86
57234;BME280;43090;52.604;13.318;2023-05-15T01:59:12;100601.28;;;11.83;76.13
57234;BME280;43090;52.604;13.318;2023-05-15T02:01:40;100578.31;;;11.56;75.82
57234;BME280;43090;52.604;13.318;2023-05-15T02:04:08;100570.63;;;11.52;75.68
57234;BME280;43090;52.604;13.318;2023-05-15T02:06:35;100576.59;;;11.44;76.03
57234;BME280;43090;52.604;13.318;2023-05-15T02:09:02;100585.75;;;11.53;76.07
57234;BME280;43090;52.604;13.318;2023-05-15T02:11:29;100590.03;;;11.66;75.50
57234;BME280;43090;52.604;13.318;2023-05-15T02:13:56;100578.06;;;11.48;75.83
57234;BME280;43090;52.604;13.318;2023-05-15T02:16:23;100561.81;;;11.27;76.31
57234;BME280;43090;52.604;13.318;2023-05-15T02:18:49;100564.16;;;11.43;75.58
57234;BME280;43090;52.604;13.318;2023-05-15T02:21:18;100596.34;;;11.54;75.91
57234;BME280;43090;52.604;13.318;2023-05-15T02:23:44;100596.47;;;11.64;76.11
57234;BME280;43090;52.604;13.318;2023-05-15T02:29:09;100592.97;;;11.63;75.18
57234;BME280;43090;52.604;13.318;2023-05-15T02:34:36;100598.19;;;11.65;75.25
57234;BME280;43090;52.604;13.318;2023-05-15T02:37:07;100589.91;;;11.57;75.17
57234;BME280;43090;52.604;13.318;2023-05-15T02:39:36;100563.06;;;11.45;75.57
57234;BME280;43090;52.604;13.318;2023-05-15T02:42:04;100574.38;;;11.38;75.72
57234;BME280;43090;52.604;13.318;2023-05-15T02:44:34;100563.44;;;11.52;75.66
57234;BME280;43090;52.604;13.318;2023-05-15T02:47:01;100569.47;;;11.20;76.47
57234;BME280;43090;52.604;13.318;2023-05-15T02:49:28;100568.28;;;11.36;76.32
57234;BME280;43090;52.604;13.318;2023-05-15T02:51:55;100562.47;;;11.53;75.91
57234;BME280;43090;52.604;13.318;2023-05-15T02:54:22;100568.09;;;11.73;75.07
57234;BME280;43090;52.604;13.318;2023-05-15T02:56:48;100570.66;;;11.74;74.79
57234;BME280;43090;52.604;13.318;2023-05-15T02:59:15;100563.81;;;11.59;75.45
57234;BME280;43090;52.604;13.318;2023-05-15T03:01:45;100567.13;;;11.74;74.63
57234;BME280;43090;52.604;13.318;2023-05-15T03:04:13;100567.22;;;11.49;75.40
57234;BME280;43090;52.604;13.318;2023-05-15T03:06:40;100560.63;;;11.42;75.20
57234;BME280;43090;52.604;13.318;2023-05-15T03:09:06;100552.22;;;11.36;75.95
57234;BME280;43090;52.604;13.318;2023-05-15T03:11:33;100567.47;;;11.58;75.00
57234;BME280;43090;52.604;13.318;2023-05-15T03:13:59;100548.81;;;11.45;75.15
57234;BME280;43090;52.604;13.318;2023-05-15T03:16:26;100564.78;;;11.46;75.49
57234;BME280;43090;52.604;13.318;2023-05-15T03:18:53;100550.38;;;11.36;75.54
57234;BME280;43090;52.604;13.318;2023-05-15T03:21:20;100545.41;;;11.54;74.79
57234;BME280;43090;52.604;13.318;2023-05-15T03:23:46;100552.00;;;11.61;74.47
57234;BME280;43090;52.604;13.318;2023-05-15T03:26:13;100542.34;;;11.47;74.67
57234;BME280;43090;52.604;13.318;2023-05-15T03:28:39;100551.75;;;11.42;74.88
57234;BME280;43090;52.604;13.318;2023-05-15T03:31:07;100551.59;;;11.32;75.61
57234;BME280;43090;52.604;13.318;2023-05-15T03:33:34;100551.47;;;11.33;75.80
57234;BME280;43090;52.604;13.318;2023-05-15T03:36:00;100538.34;;;11.42;75.35
57234;BME280;43090;52.604;13.318;2023-05-15T03:38:27;100534.44;;;11.57;74.79
57234;BME280;43090;52.604;13.318;2023-05-15T03:40:53;100536.16;;;11.70;74.57
57234;BME280;43090;52.604;13.318;2023-05-15T03:43:20;100533.84;;;11.76;73.86
57234;BME280;43090;52.604;13.318;2023-05-15T03:45:46;100532.47;;;11.71;73.95
57234;BME280;43090;52.604;13.318;2023-05-15T03:48:13;100524.44;;;11.71;73.52
57234;BME280;43090;52.604;13.318;2023-05-15T03:50:39;100540.31;;;11.51;74.35
57234;BME280;43090;52.604;13.318;2023-05-15T03:53:06;100536.91;;;11.60;73.96
57234;BME280;43090;52.604;13.318;2023-05-15T03:55:32;100541.16;;;11.63;74.12
57234;BME280;43090;52.604;13.318;2023-05-15T03:57:59;100526.63;;;11.65;74.02
57234;BME280;43090;52.604;13.318;2023-05-15T04:00:25;100513.84;;;11.46;74.45
57234;BME280;43090;52.604;13.318;2023-05-15T04:02:52;100521.78;;;11.59;74.42
57234;BME280;43090;52.604;13.318;2023-05-15T04:05:19;100519.06;;;11.37;75.47
57234;BME280;43090;52.604;13.318;2023-05-15T04:07:47;100517.13;;;11.39;75.48
57234;BME280;43090;52.604;13.318;2023-05-15T04:10:13;100524.19;;;11.40;75.75
57234;BME280;43090;52.604;13.318;2023-05-15T04:12:40;100520.75;;;11.38;76.08
57234;BME280;43090;52.604;13.318;2023-05-15T04:15:20;100511.53;;;11.53;75.57
57234;BME280;43090;52.604;13.318;2023-05-15T04:17:49;100529.31;;;11.54;75.60
57234;BME280;43090;52.604;13.318;2023-05-15T04:20:18;100511.50;;;11.30;76.45
57234;BME280;43090;52.604;13.318;2023-05-15T04:22:46;100524.22;;;11.51;76.49
57234;BME280;43090;52.604;13.318;2023-05-15T04:25:13;100517.84;;;11.52;77.08
57234;BME280;43090;52.604;13.318;2023-05-15T04:27:41;100521.41;;;11.53;77.25
57234;BME280;43090;52.604;13.318;2023-05-15T04:30:09;100503.59;;;11.52;77.37
57234;BME280;43090;52.604;13.318;2023-05-15T04:32:37;100511.41;;;11.55;77.73
57234;BME280;43090;52.604;13.318;2023-05-15T04:35:05;100525.06;;;11.63;77.87
57234;BME280;43090;52.604;13.318;2023-05-15T04:37:36;100509.81;;;11.52;78.14
57234;BME280;43090;52.604;13.318;2023-05-15T04:40:03;100505.31;;;11.53;79.03
57234;BME280;43090;52.604;13.318;2023-05-15T04:42:29;100507.03;;;11.54;78.84
57234;BME280;43090;52.604;13.318;2023-05-15T04:44:56;100519.06;;;11.71;78.77
57234;BME280;43090;52.604;13.318;2023-05-15T04:47:23;100502.25;;;11.57;79.82
57234;BME280;43090;52.604;13.318;2023-05-15T04:49:49;100519.47;;;11.66;79.96
57234;BME280;43090;52.604;13.318;2023-05-15T04:52:16;100507.63;;;11.69;79.95
57234;BME280;43090;52.604;13.318;2023-05-15T04:54:42;100510.06;;;11.83;79.52
57234;BME280;43090;52.604;13.318;2023-05-15T04:57:09;100506.41;;;11.84;80.00
57234;BME280;43090;52.604;13.318;2023-05-15T04:59:36;100504.47;;;11.97;79.76
57234;BME280;43090;52.604;13.318;2023-05-15T05:02:02;100497.84;;;11.90;79.93
57234;BME280;43090;52.604;13.318;2023-05-15T05:04:29;100492.50;;;11.90;80.55
57234;BME280;43090;52.604;13.318;2023-05-15T05:06:55;100508.72;;;12.11;80.22
57234;BME280;43090;52.604;13.318;2023-05-15T05:09:22;100495.16;;;12.13;80.26
57234;BME280;43090;52.604;13.318;2023-05-15T05:11:48;100499.41;;;12.27;80.36
57234;BME280;43090;52.604;13.318;2023-05-15T05:14:15;100496.81;;;12.37;79.87
57234;BME280;43090;52.604;13.318;2023-05-15T05:16:43;100488.59;;;12.49;79.43
57234;BME280;43090;52.604;13.318;2023-05-15T05:19:10;100482.59;;;12.57;79.03
57234;BME280;43090;52.604;13.318;2023-05-15T05:21:38;100489.47;;;12.71;78.78
57234;BME280;43090;52.604;13.318;2023-05-15T05:24:05;100486.88;;;12.81;78.19
57234;BME280;43090;52.604;13.318;2023-05-15T05:26:31;100488.47;;;12.83;78.58
57234;BME280;43090;52.604;13.318;2023-05-15T05:28:58;100474.09;;;12.94;77.95
57234;BME280;43090;52.604;13.318;2023-05-15T05:31:25;100480.72;;;13.11;77.62
57234;BME280;43090;52.604;13.318;2023-05-15T05:33:51;100458.63;;;13.08;77.71
57234;BME280;43090;52.604;13.318;2023-05-15T05:36:18;100466.34;;;13.22;76.87
57234;BME280;43090;52.604;13.318;2023-05-15T05:38:45;100465.06;;;13.38;76.02
57234;BME280;43090;52.604;13.318;2023-05-15T05:41:11;100441.69;;;13.17;76.28
57234;BME280;43090;52.604;13.318;2023-05-15T05:43:40;100457.75;;;13.28;75.08
57234;BME280;43090;52.604;13.318;2023-05-15T05:46:07;100455.16;;;13.48;74.88
57234;BME280;43090;52.604;13.318;2023-05-15T05:48:33;100455.81;;;13.61;74.19
57234;BME280;43090;52.604;13.318;2023-05-15T05:51:00;100470.06;;;13.93;73.93
57234;BME280;43090;52.604;13.318;2023-05-15T05:53:27;100438.03;;;13.80;73.41
57234;BME280;43090;52.604;13.318;2023-05-15T05:55:54;100415.94;;;13.86;71.98
57234;BME280;43090;52.604;13.318;2023-05-15T05:58:20;100420.22;;;14.08;70.18
57234;BME280;43090;52.604;13.318;2023-05-15T06:00:52;100452.00;;;14.34;68.04
57234;BME280;43090;52.604;13.318;2023-05-15T06:03:19;100438.41;;;14.36;67.29
57234;BME280;43090;52.604;13.318;2023-05-15T06:05:46;100442.50;;;14.40;66.80
57234;BME280;43090;52.604;13.318;2023-05-15T06:08:14;100441.38;;;14.42;67.14
57234;BME280;43090;52.604;13.318;2023-05-15T06:10:41;100446.59;;;14.54;67.97
57234;BME280;43090;52.604;13.318;2023-05-15T06:13:07;100444.19;;;14.60;68.40
57234;BME280;43090;52.604;13.318;2023-05-15T06:15:34;100423.53;;;14.31;69.47
57234;BME280;43090;52.604;13.318;2023-05-15T06:18:03;100414.72;;;14.39;70.11
57234;BME280;43090;52.604;13.318;2023-05-15T06:20:29;100395.44;;;14.44;70.40
57234;BME280;43090;52.604;13.318;2023-05-15T06:22:56;100432.31;;;14.73;70.28
57234;BME280;43090;52.604;13.318;2023-05-15T06:25:23;100438.25;;;14.86;70.95
57234;BME280;43090;52.604;13.318;2023-05-15T06:27:49;100444.59;;;15.05;71.93
57234;BME280;43090;52.604;13.318;2023-05-15T06:30:16;100439.81;;;14.89;73.61
57234;BME280;43090;52.604;13.318;2023-05-15T06:32:43;100427.44;;;14.96;73.46
57234;BME280;43090;52.604;13.318;2023-05-15T06:35:10;100439.03;;;15.16;72.55
57234;BME280;43090;52.604;13.318;2023-05-15T06:37:40;100405.66;;;14.79;73.17
57234;BME280;43090;52.604;13.318;2023-05-15T06:40:07;100403.63;;;14.91;72.72
57234;BME280;43090;52.604;13.318;2023-05-15T06:42:34;100400.91;;;15.01;72.20
57234;BME280;43090;52.604;13.318;2023-05-15T06:45:05;100388.66;;;15.07;70.89
57234;BME280;43090;52.604;13.318;2023-05-15T06:47:32;100421.47;;;15.40;69.68
57234;BME280;43090;52.604;13.318;2023-05-15T06:49:58;100432.50;;;15.56;69.33
57234;BME280;43090;52.604;13.318;2023-05-15T06:52:25;100407.47;;;15.36;69.23
57234;BME280;43090;52.604;13.318;2023-05-15T06:54:52;100419.09;;;15.64;68.26
57234;BME280;43090;52.604;13.318;2023-05-15T06:57:18;100405.19;;;15.31;68.35
57234;BME280;43090;52.604;13.318;2023-05-15T06:59:45;100404.97;;;15.53;67.41
57234;BME280;43090;52.604;13.318;2023-05-15T07:02:12;100408.31;;;15.64;68.05
57234;BME280;43090;52.604;13.318;2023-05-15T07:04:39;100411.34;;;15.79;68.02
57234;BME280;43090;52.604;13.318;2023-05-15T07:07:06;100388.63;;;15.82;64.72
57234;BME280;43090;52.604;13.318;2023-05-15T07:09:32;100388.50;;;16.02;64.08
57234;BME280;43090;52.604;13.318;2023-05-15T07:12:00;100398.06;;;16.14;63.78
57234;BME280;43090;52.604;13.318;2023-05-15T07:14:27;100374.38;;;15.90;63.62
57234;BME280;43090;52.604;13.318;2023-05-15T07:16:53;100392.81;;;16.30;61.02
57234;BME280;43090;52.604;13.318;2023-05-15T07:19:20;100385.63;;;16.03;60.71
57234;BME280;43090;52.604;13.318;2023-05-15T07:21:46;100407.09;;;16.41;59.79
57234;BME280;43090;52.604;13.318;2023-05-15T07:24:13;100386.03;;;16.26;60.43
57234;BME280;43090;52.604;13.318;2023-05-15T07:26:39;100405.31;;;16.49;62.94
57234;BME280;43090;52.604;13.318;2023-05-15T07:29:24;100397.41;;;16.56;60.60
57234;BME280;43090;52.604;13.318;2023-05-15T07:31:50;100381.19;;;16.74;59.75
57234;BME280;43090;52.604;13.318;2023-05-15T07:34:17;100395.22;;;16.78;60.49
57234;BME280;43090;52.604;13.318;2023-05-15T07:36:43;100393.59;;;16.85;60.74
57234;BME280;43090;52.604;13.318;2023-05-15T07:39:10;100385.22;;;16.52;60.15
57234;BME280;43090;52.604;13.318;2023-05-15T07:41:36;100397.41;;;16.92;58.98
57234;BME280;43090;52.604;13.318;2023-05-15T07:44:03;100390.66;;;16.78;58.71
57234;BME280;43090;52.604;13.318;2023-05-15T07:46:30;100391.00;;;16.75;61.39
57234;BME280;43090;52.604;13.318;2023-05-15T07:48:56;100380.63;;;16.71;63.04
57234;BME280;43090;52.604;13.318;2023-05-15T07:51:23;100383.03;;;17.26;58.67
57234;BME280;43090;52.604;13.318;2023-05-15T07:53:50;100375.63;;;17.28;58.01
57234;BME280;43090;52.604;13.318;2023-05-15T07:56:17;100379.03;;;17.39;58.37
57234;BME280;43090;52.604;13.318;2023-05-15T07:58:43;100375.75;;;16.92;63.25
57234;BME280;43090;52.604;13.318;2023-05-15T08:01:10;100379.91;;;16.60;68.60
57234;BME280;43090;52.604;13.318;2023-05-15T08:03:36;100366.03;;;16.55;66.14
57234;BME280;43090;52.604;13.318;2023-05-15T08:06:03;100363.53;;;16.62;64.82
57234;BME280;43090;52.604;13.318;2023-05-15T08:08:30;100361.34;;;17.18;60.74
57234;BME280;43090;52.604;13.318;2023-05-15T08:10:56;100350.56;;;17.26;59.03
57234;BME280;43090;52.604;13.318;2023-05-15T08:13:23;100357.66;;;17.19;59.76
57234;BME280;43090;52.604;13.318;2023-05-15T08:15:49;100348.50;;;16.86;62.97
57234;BME280;43090;52.604;13.318;2023-05-15T08:18:16;100351.81;;;16.97;61.11
57234;BME280;43090;52.604;13.318;2023-05-15T08:20:42;100341.34;;;17.03;59.55
57234;BME280;43090;52.604;13.318;2023-05-15T08:23:09;100362.03;;;17.12;60.56
57234;BME280;43090;52.604;13.318;2023-05-15T08:25:35;100356.41;;;17.40;61.14
57234;BME280;43090;52.604;13.318;2023-05-15T08:28:03;100341.22;;;17.12;61.57
57234;BME280;43090;52.604;13.318;2023-05-15T08:30:29;100347.28;;;17.14;63.41
57234;BME280;43090;52.604;13.318;2023-05-15T08:32:56;100358.69;;;17.26;60.05
57234;BME280;43090;52.604;13.318;2023-05-15T08:35:22;100348.59;;;17.37;59.66
57234;BME280;43090;52.604;13.318;2023-05-15T08:37:50;100335.72;;;17.30;59.80
57234;BME280;43090;52.604;13.318;2023-05-15T08:40:16;100337.09;;;17.35;62.07
57234;BME280;43090;52.604;13.318;2023-05-15T08:42:58;100342.44;;;17.26;65.60
57234;BME280;43090;52.604;13.318;2023-05-15T08:45:26;100327.69;;;17.12;62.61
57234;BME280;43090;52.604;13.318;2023-05-15T08:47:53;100330.66;;;16.75;64.65
57234;BME280;43090;52.604;13.318;2023-05-15T08:50:21;100317.41;;;16.63;65.63
57234;BME280;43090;52.604;13.318;2023-05-15T08:52:49;100331.63;;;17.26;61.36
57234;BME280;43090;52.604;13.318;2023-05-15T08:55:16;100324.94;;;17.39;58.17
57234;BME280;43090;52.604;13.318;2023-05-15T08:57:43;100318.91;;;17.70;57.50
57234;BME280;43090;52.604;13.318;2023-05-15T09:00:11;100299.28;;;17.68;57.18
57234;BME280;43090;52.604;13.318;2023-05-15T09:02:40;100289.66;;;17.73;58.43
57234;BME280;43090;52.604;13.318;2023-05-15T09:05:08;100304.94;;;17.31;61.69
57234;BME280;43090;52.604;13.318;2023-05-15T09:07:37;100315.91;;;17.89;58.60
57234;BME280;43090;52.604;13.318;2023-05-15T09:10:04;100314.81;;;17.49;61.98
57234;BME280;43090;52.604;13.318;2023-05-15T09:12:32;100316.22;;;17.78;57.91
57234;BME280;43090;52.604;13.318;2023-05-15T09:15:14;100314.91;;;17.90;58.00
57234;BME280;43090;52.604;13.318;2023-05-15T09:17:43;100309.50;;;17.98;55.71
57234;BME280;43090;52.604;13.318;2023-05-15T09:20:28;100300.06;;;17.43;57.74
57234;BME280;43090;52.604;13.318;2023-05-15T09:22:56;100312.31;;;17.72;57.82
57234;BME280;43090;52.604;13.318;2023-05-15T09:25:33;100311.69;;;18.03;57.23
57234;BME280;43090;52.604;13.318;2023-05-15T09:28:00;100301.22;;;18.08;53.60
57234;BME280;43090;52.604;13.318;2023-05-15T09:30:26;100302.59;;;18.12;54.20
57234;BME280;43090;52.604;13.318;2023-05-15T09:32:54;100306.97;;;18.38;54.64
57234;BME280;43090;52.604;13.318;2023-05-15T09:35:47;100297.31;;;18.03;51.66
57234;BME280;43090;52.604;13.318;2023-05-15T09:38:14;100291.22;;;17.92;52.48
57234;BME280;43090;52.604;13.318;2023-05-15T09:40:41;100294.78;;;18.34;50.80
57234;BME280;43090;52.604;13.318;2023-05-15T09:43:10;100299.38;;;18.09;50.02
57234;BME280;43090;52.604;13.318;2023-05-15T09:45:37;100307.50;;;18.09;51.34
57234;BME280;43090;52.604;13.318;2023-05-15T09:48:05;100285.97;;;18.24;49.83
57234;BME280;43090;52.604;13.318;2023-05-15T09:50:34;100302.06;;;18.42;49.26
57234;BME280;43090;52.604;13.318;2023-05-15T09:53:01;100292.06;;;18.34;51.32
57234;BME280;43090;52.604;13.318;2023-05-15T09:55:30;100278.38;;;18.19;49.18
57234;BME280;43090;52.604;13.318;2023-05-15T09:58:12;100261.91;;;17.79;52.99
57234;BME280;43090;52.604;13.318;2023-05-15T10:00:41;100298.22;;;17.44;54.44
57234;BME280;43090;52.604;13.318;2023-05-15T10:03:14;100299.03;;;17.95;49.93
57234;BME280;43090;52.604;13.318;2023-05-15T10:05:42;100309.59;;;17.72;57.80
57234;BME280;43090;52.604;13.318;2023-05-15T10:08:10;100309.06;;;17.52;54.15
57234;BME280;43090;52.604;13.318;2023-05-15T10:10:37;100291.09;;;17.35;54.49
57234;BME280;43090;52.604;13.318;2023-05-15T10:13:04;100292.19;;;17.67;52.77
57234;BME280;43090;52.604;13.318;2023-05-15T10:15:32;100297.84;;;17.30;58.60
57234;BME280;43090;52.604;13.318;2023-05-15T10:17:59;100296.16;;;17.38;56.53
57234;BME280;43090;52.604;13.318;2023-05-15T10:20:26;100298.13;;;17.70;54.51
57234;BME280;43090;52.604;13.318;2023-05-15T10:22:53;100302.84;;;17.76;52.24
57234;BME280;43090;52.604;13.318;2023-05-15T10:28:10;100291.09;;;17.35;54.89
57234;BME280;43090;52.604;13.318;2023-05-15T10:30:37;100296.59;;;17.76;54.62
57234;BME280;43090;52.604;13.318;2023-05-15T10:33:05;100283.19;;;17.58;56.49
57234;BME280;43090;52.604;13.318;2023-05-15T10:35:33;100291.00;;;17.69;54.24
57234;BME280;43090;52.604;13.318;2023-05-15T10:38:03;100283.41;;;17.73;56.12
57234;BME280;43090;52.604;13.318;2023-05-15T10:40:29;100281.00;;;17.61;59.58
57234;BME280;43090;52.604;13.318;2023-05-15T10:42:58;100286.06;;;17.56;63.24
57234;BME280;43090;52.604;13.318;2023-05-15T10:45:26;100281.63;;;17.39;63.32
57234;BME280;43090;52.604;13.318;2023-05-15T10:47:54;100283.81;;;17.35;60.14
57234;BME280;43090;52.604;13.318;2023-05-15T10:50:21;100268.94;;;17.39;63.21
57234;BME280;43090;52.604;13.318;2023-05-15T10:52:49;100272.16;;;17.43;60.85
57234;BME280;43090;52.604;13.318;2023-05-15T10:55:16;100259.44;;;17.27;60.15
57234;BME280;43090;52.604;13.318;2023-05-15T10:57:46;100263.22;;;17.67;57.85
57234;BME280;43090;52.604;13.318;2023-05-15T11:00:24;100257.81;;;17.75;56.87
57234;BME280;43090;52.604;13.318;2023-05-15T11:02:51;100257.19;;;18.14;52.65
57234;BME280;43090;52.604;13.318;2023-05-15T11:05:22;100253.47;;;18.15;52.73
57234;BME280;43090;52.604;13.318;2023-05-15T11:10:40;100253.41;;;18.57;53.59
57234;BME280;43090;52.604;13.318;2023-05-15T11:13:07;100240.31;;;18.69;54.89
57234;BME280;43090;52.604;13.318;2023-05-15T11:15:41;100246.34;;;18.87;53.83
57234;BME280;43090;52.604;13.318;2023-05-15T11:18:08;100249.88;;;18.40;53.81
57234;BME280;43090;52.604;13.318;2023-05-15T11:20:39;100239.22;;;18.86;51.52
57234;BME280;43090;52.604;13.318;2023-05-15T11:23:06;100237.19;;;18.88;53.77
57234;BME280;43090;52.604;13.318;2023-05-15T11:25:34;100233.19;;;18.68;54.86
57234;BME280;43090;52.604;13.318;2023-05-15T11:28:03;100227.50;;;19.02;52.07
57234;BME280;43090;52.604;13.318;2023-05-15T11:30:37;100218.16;;;19.05;51.23
57234;BME280;43090;52.604;13.318;2023-05-15T11:33:06;100222.69;;;19.12;50.24
57234;BME280;43090;52.604;13.318;2023-05-15T11:35:42;100206.47;;;19.36;52.26
57234;BME280;43090;52.604;13.318;2023-05-15T11:40:58;100209.81;;;19.38;48.05
57234;BME280;43090;52.604;13.318;2023-05-15T11:43:29;100216.88;;;18.76;50.76
57234;BME280;43090;52.604;13.318;2023-05-15T11:46:03;100207.03;;;18.91;52.04
57234;BME280;43090;52.604;13.318;2023-05-15T11:48:32;100193.28;;;19.24;51.44
57234;BME280;43090;52.604;13.318;2023-05-15T11:51:03;100192.59;;;19.30;51.20
57234;BME280;43090;52.604;13.318;2023-05-15T11:53:31;100198.06;;;19.45;47.57
57234;BME280;43090;52.604;13.318;2023-05-15T11:55:58;100194.91;;;19.10;49.73
57234;BME280;43090;52.604;13.318;2023-05-15T11:58:25;100197.38;;;19.43;48.07
57234;BME280;43090;52.604;13.318;2023-05-15T12:00:52;100184.91;;;19.57;45.11
57234;BME280;43090;52.604;13.318;2023-05-15T12:05:50;100178.03;;;19.93;42.19
57234;BME280;43090;52.604;13.318;2023-05-15T12:08:30;100168.03;;;20.08;43.79
57234;BME280;43090;52.604;13.318;2023-05-15T12:10:58;100171.94;;;19.68;42.78
57234;BME280;43090;52.604;13.318;2023-05-15T12:13:25;100170.13;;;19.83;43.16
57234;BME280;43090;52.604;13.318;2023-05-15T12:15:52;100179.44;;;19.89;41.78
57234;BME280;43090;52.604;13.318;2023-05-15T12:18:19;100164.25;;;19.94;43.43
57234;BME280;43090;52.604;13.318;2023-05-15T12:20:45;100151.16;;;20.28;41.55
57234;BME280;43090;52.604;13.318;2023-05-15T12:23:16;100159.34;;;20.43;41.27
57234;BME280;43090;52.604;13.318;2023-05-15T12:25:43;100162.31;;;20.63;41.20
57234;BME280;43090;52.604;13.318;2023-05-15T12:28:12;100143.47;;;20.61;44.89
57234;BME280;43090;52.604;13.318;2023-05-15T12:30:40;100146.16;;;20.91;42.26
57234;BME280;43090;52.604;13.318;2023-05-15T12:33:08;100150.25;;;21.02;41.89
57234;BME280;43090;52.604;13.318;2023-05-15T12:35:40;100141.16;;;21.32;39.94
57234;BME280;43090;52.604;13.318;2023-05-15T12:38:07;100150.28;;;21.24;38.47
57234;BME280;43090;52.604;13.318;2023-05-15T12:40:34;100158.19;;;20.37;41.62
57234;BME280;43090;52.604;13.318;2023-05-15T12:43:05;100150.44;;;20.19;43.54
57234;BME280;43090;52.604;13.318;2023-05-15T12:45:32;100138.66;;;20.93;42.41
57234;BME280;43090;52.604;13.318;2023-05-15T12:48:00;100136.50;;;20.89;41.83
57234;BME280;43090;52.604;13.318;2023-05-15T12:50:31;100149.81;;;20.84;41.66
57234;BME280;43090;52.604;13.318;2023-05-15T12:53:03;100142.69;;;21.19;38.74
57234;BME280;43090;52.604;13.318;2023-05-15T12:55:34;100138.50;;;21.38;39.49
57234;BME280;43090;52.604;13.318;2023-05-15T12:58:04;100139.00;;;21.49;37.55
57234;BME280;43090;52.604;13.318;2023-05-15T13:00:35;100126.75;;;21.59;35.88
57234;BME280;43090;52.604;13.318;2023-05-15T13:03:03;100127.28;;;21.70;37.14
57234;BME280;43090;52.604;13.318;2023-05-15T13:05:34;100118.97;;;21.35;36.48
57234;BME280;43090;52.604;13.318;2023-05-15T13:08:02;100128.56;;;21.30;39.16
57234;BME280;43090;52.604;13.318;2023-05-15T13:10:33;100132.38;;;21.79;37.31
57234;BME280;43090;52.604;13.318;2023-05-15T13:13:00;100127.59;;;21.60;36.72
57234;BME280;43090;52.604;13.318;2023-05-15T13:18:05;100123.75;;;22.04;37.72
57234;BME280;43090;52.604;13.318;2023-05-15T13:20:38;100119.69;;;22.28;35.75
57234;BME280;43090;52.604;13.318;2023-05-15T13:23:06;100103.53;;;22.75;35.93